createdAt,value
2023-01-11T00:03:25.411Z,100.00
2023-01-11T00:08:47.634Z,100.00
2023-01-11T00:14:10.136Z,100.00
2023-01-11T00:19:32.512Z,100.00
2023-01-11T00:24:54.895Z,100.00
2023-01-11T00:30:17.935Z,100.00
2023-01-11T00:35:41.740Z,100.00
2023-01-11T00:41:05.641Z,100.00
2023-01-11T00:46:45.560Z,100.00
2023-01-11T00:52:09.829Z,100.00
2023-01-11T00:57:32.499Z,100.00
2023-01-11T01:02:54.855Z,100.00
2023-01-11T01:08:17.419Z,100.00
2023-01-11T01:13:57.196Z,100.00
2023-01-11T01:19:19.775Z,100.00
2023-01-11T01:24:42.340Z,100.00
2023-01-11T01:30:05.090Z,100.00
2023-01-11T01:35:27.900Z,100.00
2023-01-11T01:40:57.763Z,100.00
2023-01-11T01:46:20.040Z,100.00
2023-01-11T01:51:55.702Z,100.00
2023-01-11T01:57:22.787Z,100.00
2023-01-11T02:02:46.225Z,100.00
2023-01-11T02:08:10.817Z,100.00
2023-01-11T02:13:35.245Z,100.00
2023-01-11T02:18:57.618Z,100.00
2023-01-11T02:24:46.047Z,100.00
2023-01-11T02:30:19.068Z,100.00
2023-01-11T02:35:59.302Z,100.00
2023-01-11T02:47:35.442Z,100.00
2023-01-11T02:53:17.401Z,100.00
2023-01-11T02:58:43.709Z,100.00
2023-01-11T03:04:06.394Z,100.00
2023-01-11T03:09:48.856Z,100.00
2023-01-11T03:15:41.977Z,100.00
2023-01-11T03:21:09.812Z,100.00
2023-01-11T03:26:54.399Z,100.00
2023-01-11T03:32:50.379Z,100.00
2023-01-11T03:38:22.908Z,100.00
2023-01-11T03:43:49.282Z,100.00
2023-01-11T03:49:25.590Z,100.00
2023-01-11T03:54:50.799Z,100.00
2023-01-11T04:00:14.367Z,100.00
2023-01-11T04:05:36.870Z,100.00
2023-01-11T04:10:59.389Z,100.00
2023-01-11T04:16:21.750Z,100.00
2023-01-11T04:21:44.032Z,100.00
2023-01-11T04:27:06.333Z,100.00
2023-01-11T04:32:29.436Z,100.00
2023-01-11T04:37:51.800Z,100.00
2023-01-11T04:43:14.018Z,100.00
2023-01-11T04:48:36.367Z,100.00
2023-01-11T04:54:00.122Z,100.00
2023-01-11T04:59:22.363Z,100.00
2023-01-11T05:04:45.087Z,100.00
2023-01-11T05:10:07.627Z,100.00
2023-01-11T05:15:29.962Z,100.00
2023-01-11T05:20:53.839Z,100.00
2023-01-11T05:26:23.610Z,100.00
2023-01-11T05:31:47.346Z,100.00
2023-01-11T05:37:09.677Z,100.00
2023-01-11T05:42:31.890Z,100.00
2023-01-11T05:47:54.320Z,100.00
2023-01-11T05:53:16.808Z,100.00
2023-01-11T05:58:39.698Z,100.00
2023-01-11T06:04:01.998Z,100.00
2023-01-11T06:09:24.349Z,100.00
2023-01-11T06:14:46.705Z,100.00
2023-01-11T06:20:08.919Z,100.00
2023-01-11T06:25:31.134Z,100.00
2023-01-11T06:30:59.609Z,100.00
2023-01-11T06:36:29.607Z,100.00
2023-01-11T06:41:51.055Z,100.00
2023-01-11T06:47:13.468Z,100.00
2023-01-11T06:52:35.771Z,100.00
2023-01-11T06:57:57.949Z,100.00
2023-01-11T07:03:24.563Z,100.00
2023-01-11T07:08:47.047Z,100.00
2023-01-11T07:14:11.642Z,100.00
2023-01-11T07:19:34.257Z,100.00
2023-01-11T07:24:57.389Z,100.00
2023-01-11T07:30:20.204Z,100.00
2023-01-11T07:35:42.668Z,100.00
2023-01-11T07:41:06.620Z,100.00
2023-01-11T07:46:29.067Z,100.00
2023-01-11T07:51:53.011Z,100.00
2023-01-11T07:57:15.850Z,100.00
2023-01-11T08:02:38.188Z,100.00
2023-01-11T08:08:02.129Z,100.00
2023-01-11T08:13:43.992Z,99.54
2023-01-11T08:19:06.297Z,96.92
2023-01-11T08:24:29.500Z,93.92
2023-01-11T08:29:51.877Z,91.53
2023-01-11T08:35:14.575Z,89.37
2023-01-11T08:40:38.596Z,87.97
2023-01-11T08:46:02.550Z,86.65
2023-01-11T08:51:25.072Z,85.34
2023-01-11T08:56:47.325Z,84.08
2023-01-11T09:02:11.167Z,83.16
2023-01-11T09:07:33.352Z,82.07
2023-01-11T09:12:56.257Z,81.09
2023-01-11T09:18:19.647Z,79.97
2023-01-11T09:23:43.716Z,79.50
2023-01-11T09:29:06.108Z,79.20
2023-01-11T09:34:28.598Z,78.99
2023-01-11T09:39:51.944Z,78.43
2023-01-11T09:45:32.913Z,78.02
2023-01-11T09:50:57.988Z,77.62
2023-01-11T09:56:28.979Z,77.14
2023-01-11T10:02:00.875Z,76.86
2023-01-11T10:19:39.429Z,74.11
2023-01-11T10:25:13.911Z,73.12
2023-01-11T10:30:59.473Z,72.28
2023-01-11T10:37:00.252Z,72.29
2023-01-11T10:42:39.068Z,71.96
2023-01-11T10:48:34.150Z,71.26
2023-01-11T10:54:29.072Z,71.30
2023-01-11T11:00:17.909Z,71.37
2023-01-11T11:12:06.591Z,70.29
2023-01-11T11:17:39.704Z,71.05
2023-01-11T11:23:03.482Z,70.58
2023-01-11T11:28:37.082Z,70.09
2023-01-11T11:34:00.053Z,69.74
2023-01-11T11:39:30.166Z,69.49
2023-01-11T11:44:52.703Z,69.42
2023-01-11T11:50:48.610Z,69.14
2023-01-11T11:55:57.613Z,69.14
2023-01-11T12:01:38.969Z,69.18
2023-01-11T12:07:15.660Z,69.48
2023-01-11T12:12:39.842Z,69.72
2023-01-11T12:18:02.648Z,69.70
2023-01-11T12:23:36.539Z,69.74
2023-01-11T12:29:09.746Z,69.88
2023-01-11T12:34:55.148Z,69.89
2023-01-11T12:40:34.331Z,69.99
2023-01-11T12:46:14.516Z,69.91
2023-01-11T12:52:05.767Z,70.02
2023-01-11T12:58:05.314Z,70.14
2023-01-11T13:03:38.092Z,70.22
2023-01-11T13:09:16.646Z,70.14
2023-01-11T13:15:20.465Z,70.10
2023-01-11T13:21:01.651Z,70.37
2023-01-11T13:26:36.035Z,70.57
2023-01-11T13:32:01.504Z,70.80
2023-01-11T13:37:42.581Z,70.89
2023-01-11T13:43:16.441Z,71.18
2023-01-11T13:48:58.315Z,71.46
2023-01-11T13:54:56.438Z,71.62
2023-01-11T14:00:31.336Z,71.78
2023-01-11T14:06:01.281Z,71.68
2023-01-11T14:11:26.811Z,71.49
2023-01-11T14:17:06.261Z,71.56
2023-01-11T14:23:04.525Z,71.57
2023-01-11T14:28:48.299Z,71.86
2023-01-11T14:35:02.479Z,72.09
2023-01-11T14:41:00.573Z,72.57
2023-01-11T14:46:46.640Z,72.15
2023-01-11T14:52:38.445Z,72.27
2023-01-11T14:58:08.732Z,72.64
2023-01-11T15:03:50.974Z,72.90
2023-01-11T15:09:14.681Z,72.90
2023-01-11T15:14:46.037Z,72.77
2023-01-11T15:20:19.239Z,72.60
2023-01-11T15:25:53.900Z,72.96
2023-01-11T15:31:35.771Z,72.55
2023-01-11T15:37:27.151Z,72.65
2023-01-11T15:43:45.962Z,72.90
2023-01-11T15:49:41.767Z,72.98
2023-01-11T15:55:30.078Z,73.16
2023-01-11T16:01:30.198Z,73.37
2023-01-11T16:07:01.576Z,73.55
2023-01-11T16:12:45.228Z,73.70
2023-01-11T16:18:12.274Z,73.79
2023-01-11T16:23:37.220Z,73.64
2023-01-11T16:29:10.681Z,73.67
2023-01-11T16:34:35.892Z,73.66
2023-01-11T16:40:02.762Z,73.55
2023-01-11T16:45:30.651Z,73.59
2023-01-11T16:56:51.445Z,74.01
2023-01-11T17:02:20.386Z,73.82
2023-01-11T17:07:47.329Z,73.89
2023-01-11T17:13:41.014Z,74.08
2023-01-11T17:19:05.181Z,74.31
2023-01-11T17:24:31.091Z,74.52
2023-01-11T17:30:00.563Z,74.62
2023-01-11T17:35:41.795Z,74.79
2023-01-11T17:41:06.814Z,75.01
2023-01-11T17:46:38.359Z,75.06
2023-01-11T17:52:01.144Z,75.17
2023-01-11T17:57:24.335Z,75.40
2023-01-11T18:02:48.736Z,75.96
2023-01-11T18:08:12.791Z,78.77
2023-01-11T18:13:45.192Z,82.77
2023-01-11T18:19:09.228Z,86.67
2023-01-11T18:24:45.373Z,90.34
2023-01-11T18:30:11.629Z,93.94
2023-01-11T18:35:35.349Z,96.74
2023-01-11T18:40:59.329Z,98.75
2023-01-11T18:46:22.149Z,100.00
2023-01-11T18:51:48.289Z,100.00
2023-01-11T18:57:11.144Z,100.00
2023-01-11T19:02:55.493Z,100.00
2023-01-11T19:08:19.370Z,100.00
2023-01-11T19:13:42.204Z,100.00
2023-01-11T19:19:11.029Z,100.00
2023-01-11T19:24:33.280Z,100.00
2023-01-11T19:29:57.168Z,100.00
2023-01-11T19:35:25.904Z,100.00
2023-01-11T19:40:50.342Z,100.00
2023-01-11T19:46:30.203Z,100.00
2023-01-11T19:51:41.014Z,100.00
2023-01-11T19:57:05.225Z,100.00
2023-01-11T20:02:29.786Z,100.00
2023-01-11T20:07:54.239Z,100.00
2023-01-11T20:13:16.612Z,100.00
2023-01-11T20:18:38.902Z,100.00
2023-01-11T20:24:02.243Z,100.00
2023-01-11T20:29:25.538Z,100.00
2023-01-11T20:34:48.007Z,100.00
2023-01-11T20:40:14.353Z,100.00
2023-01-11T20:45:36.599Z,100.00
2023-01-11T20:50:58.829Z,100.00
2023-01-11T20:56:22.691Z,100.00
2023-01-11T21:01:45.100Z,100.00
2023-01-11T21:07:07.413Z,100.00
2023-01-11T21:12:29.613Z,100.00
2023-01-11T21:17:51.824Z,100.00
2023-01-11T21:23:15.668Z,100.00
2023-01-11T21:28:38.283Z,100.00
2023-01-11T21:34:01.332Z,100.00
2023-01-11T21:39:27.075Z,100.00
2023-01-11T21:44:50.804Z,100.00
2023-01-11T21:50:14.411Z,100.00
2023-01-11T21:55:36.631Z,100.00
2023-01-11T22:00:58.929Z,100.00
2023-01-11T22:06:22.179Z,100.00
2023-01-11T22:11:45.905Z,100.00
2023-01-11T22:17:09.295Z,100.00
2023-01-11T22:22:31.489Z,100.00
2023-01-11T22:27:53.767Z,100.00
2023-01-11T22:33:17.570Z,100.00
2023-01-11T22:38:39.842Z,100.00
2023-01-11T22:44:02.764Z,100.00
2023-01-11T22:49:25.622Z,100.00
2023-01-11T22:54:48.282Z,100.00
2023-01-11T23:00:11.797Z,100.00
2023-01-11T23:05:34.093Z,100.00
2023-01-11T23:10:56.371Z,100.00
2023-01-11T23:16:18.882Z,100.00
2023-01-11T23:21:41.800Z,100.00
2023-01-11T23:27:04.332Z,100.00
2023-01-11T23:32:28.093Z,100.00
2023-01-11T23:37:50.629Z,100.00
2023-01-11T23:43:13.580Z,100.00
2023-01-11T23:48:37.440Z,100.00
2023-01-11T23:54:00.588Z,100.00
2023-01-11T23:59:24.303Z,100.00
